sensor_id;sensor_type;location;lat;lon;timestamp;P1;durP1;ratioP1;P2;durP2;ratioP2
19883;SDS011;10104;50.732;10.174;2023-09-19T00:02:30;2.25;;;1.30;;
19883;SDS011;10104;50.732;10.174;2023-09-19T00:05:11;2.80;;;1.23;;
19883;SDS011;10104;50.732;10.174;2023-09-19T00:07:52;3.30;;;1.50;;
19883;SDS011;10104;50.732;10.174;2023-09-19T00:10:38;3.05;;;1.50;;
19883;SDS011;10104;50.732;10.174;2023-09-19T00:13:20;4.65;;;1.48;;
19883;SDS011;10104;50.732;10.174;2023-09-19T00:16:00;3.20;;;1.42;;
19883;SDS011;10104;50.732;10.174;2023-09-19T00:18:41;1.83;;;1.42;;
19883;SDS011;10104;50.732;10.174;2023-09-19T00:21:22;2.92;;;1.50;;
19883;SDS011;10104;50.732;10.174;2023-09-19T00:24:03;3.30;;;1.52;;
19883;SDS011;10104;50.732;10.174;2023-09-19T00:26:45;4.57;;;1.48;;
19883;SDS011;10104;50.732;10.174;2023-09-19T00:29:26;2.67;;;1.58;;
19883;SDS011;10104;50.732;10.174;2023-09-19T00:32:09;3.08;;;1.40;;
19883;SDS011;10104;50.732;10.174;2023-09-19T00:34:49;4.35;;;1.63;;
19883;SDS011;10104;50.732;10.174;2023-09-19T00:37:30;3.72;;;1.65;;
19883;SDS011;10104;50.732;10.174;2023-09-19T00:40:10;3.95;;;2.10;;
19883;SDS011;10104;50.732;10.174;2023-09-19T00:42:52;5.15;;;2.35;;
19883;SDS011;10104;50.732;10.174;2023-09-19T00:45:42;2.95;;;1.75;;
19883;SDS011;10104;50.732;10.174;2023-09-19T00:48:24;3.92;;;1.95;;
19883;SDS011;10104;50.732;10.174;2023-09-19T00:51:07;1.60;;;1.40;;
19883;SDS011;10104;50.732;10.174;2023-09-19T00:53:48;2.35;;;1.85;;
19883;SDS011;10104;50.732;10.174;2023-09-19T00:56:28;3.08;;;2.00;;
19883;SDS011;10104;50.732;10.174;2023-09-19T00:59:08;2.13;;;1.65;;
19883;SDS011;10104;50.732;10.174;2023-09-19T01:01:49;2.47;;;1.90;;
19883;SDS011;10104;50.732;10.174;2023-09-19T01:04:34;2.92;;;1.90;;
19883;SDS011;10104;50.732;10.174;2023-09-19T01:07:15;2.92;;;1.90;;
19883;SDS011;10104;50.732;10.174;2023-09-19T01:09:56;2.42;;;1.80;;
19883;SDS011;10104;50.732;10.174;2023-09-19T01:15:55;6.20;;;2.03;;
19883;SDS011;10104;50.732;10.174;2023-09-19T01:18:52;2.95;;;1.95;;
19883;SDS011;10104;50.732;10.174;2023-09-19T01:22:06;3.05;;;1.80;;
19883;SDS011;10104;50.732;10.174;2023-09-19T01:25:13;3.00;;;2.05;;
19883;SDS011;10104;50.732;10.174;2023-09-19T01:31:17;4.55;;;1.80;;
19883;SDS011;10104;50.732;10.174;2023-09-19T01:34:00;5.68;;;2.03;;
19883;SDS011;10104;50.732;10.174;2023-09-19T01:36:44;2.35;;;1.60;;
19883;SDS011;10104;50.732;10.174;2023-09-19T01:39:25;3.38;;;2.20;;
19883;SDS011;10104;50.732;10.174;2023-09-19T01:42:08;2.13;;;1.80;;
19883;SDS011;10104;50.732;10.174;2023-09-19T01:45:11;4.72;;;1.88;;
19883;SDS011;10104;50.732;10.174;2023-09-19T01:47:53;2.72;;;2.00;;
19883;SDS011;10104;50.732;10.174;2023-09-19T01:50:41;3.97;;;1.63;;
19883;SDS011;10104;50.732;10.174;2023-09-19T01:53:25;2.80;;;1.80;;
19883;SDS011;10104;50.732;10.174;2023-09-19T01:56:12;2.58;;;1.50;;
19883;SDS011;10104;50.732;10.174;2023-09-19T01:58:59;2.40;;;1.80;;
19883;SDS011;10104;50.732;10.174;2023-09-19T02:01:46;2.17;;;1.65;;
19883;SDS011;10104;50.732;10.174;2023-09-19T02:04:27;5.13;;;1.90;;
19883;SDS011;10104;50.732;10.174;2023-09-19T02:07:08;2.38;;;1.55;;
19883;SDS011;10104;50.732;10.174;2023-09-19T02:09:48;2.03;;;1.50;;
19883;SDS011;10104;50.732;10.174;2023-09-19T02:12:28;2.15;;;1.60;;
19883;SDS011;10104;50.732;10.174;2023-09-19T02:15:10;3.08;;;1.73;;
19883;SDS011;10104;50.732;10.174;2023-09-19T02:17:50;2.28;;;1.70;;
19883;SDS011;10104;50.732;10.174;2023-09-19T02:20:31;3.47;;;1.90;;
19883;SDS011;10104;50.732;10.174;2023-09-19T02:23:13;2.92;;;1.95;;
19883;SDS011;10104;50.732;10.174;2023-09-19T02:25:55;3.42;;;1.73;;
19883;SDS011;10104;50.732;10.174;2023-09-19T02:28:44;3.85;;;2.00;;
19883;SDS011;10104;50.732;10.174;2023-09-19T02:31:26;3.53;;;1.70;;
19883;SDS011;10104;50.732;10.174;2023-09-19T02:34:09;3.67;;;2.03;;
19883;SDS011;10104;50.732;10.174;2023-09-19T02:36:49;6.25;;;1.92;;
19883;SDS011;10104;50.732;10.174;2023-09-19T02:39:30;3.50;;;1.98;;
19883;SDS011;10104;50.732;10.174;2023-09-19T02:42:10;3.50;;;2.10;;
19883;SDS011;10104;50.732;10.174;2023-09-19T02:44:50;3.58;;;1.92;;
19883;SDS011;10104;50.732;10.174;2023-09-19T02:47:30;5.07;;;1.83;;
19883;SDS011;10104;50.732;10.174;2023-09-19T02:50:11;3.65;;;1.85;;
19883;SDS011;10104;50.732;10.174;2023-09-19T02:52:52;3.17;;;1.60;;
19883;SDS011;10104;50.732;10.174;2023-09-19T02:55:33;3.60;;;1.98;;
19883;SDS011;10104;50.732;10.174;2023-09-19T02:58:14;4.25;;;1.80;;
19883;SDS011;10104;50.732;10.174;2023-09-19T03:00:55;3.88;;;1.73;;
19883;SDS011;10104;50.732;10.174;2023-09-19T03:03:35;4.47;;;2.05;;
19883;SDS011;10104;50.732;10.174;2023-09-19T03:06:17;4.03;;;1.85;;
19883;SDS011;10104;50.732;10.174;2023-09-19T03:08:59;3.25;;;1.90;;
19883;SDS011;10104;50.732;10.174;2023-09-19T03:11:39;2.35;;;1.50;;
19883;SDS011;10104;50.732;10.174;2023-09-19T03:14:21;5.18;;;1.80;;
19883;SDS011;10104;50.732;10.174;2023-09-19T03:17:03;3.40;;;2.00;;
19883;SDS011;10104;50.732;10.174;2023-09-19T03:19:45;3.65;;;1.80;;
19883;SDS011;10104;50.732;10.174;2023-09-19T03:22:27;4.20;;;1.80;;
19883;SDS011;10104;50.732;10.174;2023-09-19T03:25:08;3.33;;;1.70;;
19883;SDS011;10104;50.732;10.174;2023-09-19T03:27:48;3.17;;;1.85;;
19883;SDS011;10104;50.732;10.174;2023-09-19T03:30:28;4.35;;;1.90;;
19883;SDS011;10104;50.732;10.174;2023-09-19T03:33:08;1.98;;;1.45;;
19883;SDS011;10104;50.732;10.174;2023-09-19T03:35:53;3.20;;;1.38;;
19883;SDS011;10104;50.732;10.174;2023-09-19T03:38:34;2.53;;;1.58;;
19883;SDS011;10104;50.732;10.174;2023-09-19T03:41:15;4.97;;;1.67;;
19883;SDS011;10104;50.732;10.174;2023-09-19T03:43:57;4.43;;;1.60;;
19883;SDS011;10104;50.732;10.174;2023-09-19T03:46:37;4.90;;;1.60;;
19883;SDS011;10104;50.732;10.174;2023-09-19T03:49:18;4.53;;;1.77;;
19883;SDS011;10104;50.732;10.174;2023-09-19T03:51:59;2.70;;;1.50;;
19883;SDS011;10104;50.732;10.174;2023-09-19T03:54:39;6.40;;;1.50;;
19883;SDS011;10104;50.732;10.174;2023-09-19T03:57:21;2.95;;;1.67;;
19883;SDS011;10104;50.732;10.174;2023-09-19T04:00:01;4.03;;;1.67;;
19883;SDS011;10104;50.732;10.174;2023-09-19T04:02:42;4.68;;;1.70;;
19883;SDS011;10104;50.732;10.174;2023-09-19T04:05:23;4.22;;;1.67;;
19883;SDS011;10104;50.732;10.174;2023-09-19T04:08:04;3.30;;;1.67;;
19883;SDS011;10104;50.732;10.174;2023-09-19T04:10:44;4.72;;;1.70;;
19883;SDS011;10104;50.732;10.174;2023-09-19T04:13:25;3.67;;;1.48;;
19883;SDS011;10104;50.732;10.174;2023-09-19T04:16:06;2.65;;;1.33;;
19883;SDS011;10104;50.732;10.174;2023-09-19T04:18:50;2.75;;;1.27;;
19883;SDS011;10104;50.732;10.174;2023-09-19T04:21:30;3.10;;;1.40;;
19883;SDS011;10104;50.732;10.174;2023-09-19T04:24:11;4.00;;;1.60;;
19883;SDS011;10104;50.732;10.174;2023-09-19T04:26:51;6.75;;;1.75;;
19883;SDS011;10104;50.732;10.174;2023-09-19T04:29:32;7.22;;;1.67;;
19883;SDS011;10104;50.732;10.174;2023-09-19T04:32:12;4.18;;;1.40;;
19883;SDS011;10104;50.732;10.174;2023-09-19T04:34:52;5.53;;;1.73;;
19883;SDS011;10104;50.732;10.174;2023-09-19T04:37:40;3.70;;;1.63;;
19883;SDS011;10104;50.732;10.174;2023-09-19T04:40:24;4.63;;;1.50;;
19883;SDS011;10104;50.732;10.174;2023-09-19T04:43:06;3.78;;;1.35;;
19883;SDS011;10104;50.732;10.174;2023-09-19T04:45:47;4.10;;;1.48;;
19883;SDS011;10104;50.732;10.174;2023-09-19T04:48:28;3.00;;;1.30;;
19883;SDS011;10104;50.732;10.174;2023-09-19T04:51:09;3.47;;;1.40;;
19883;SDS011;10104;50.732;10.174;2023-09-19T04:53:50;3.72;;;1.58;;
19883;SDS011;10104;50.732;10.174;2023-09-19T04:56:30;4.32;;;1.65;;
19883;SDS011;10104;50.732;10.174;2023-09-19T04:59:11;12.05;;;1.65;;
19883;SDS011;10104;50.732;10.174;2023-09-19T05:01:52;5.07;;;1.65;;
19883;SDS011;10104;50.732;10.174;2023-09-19T05:04:32;4.68;;;1.77;;
19883;SDS011;10104;50.732;10.174;2023-09-19T05:07:12;3.20;;;1.88;;
19883;SDS011;10104;50.732;10.174;2023-09-19T05:09:52;3.90;;;1.45;;
19883;SDS011;10104;50.732;10.174;2023-09-19T05:12:33;6.25;;;1.63;;
19883;SDS011;10104;50.732;10.174;2023-09-19T05:15:15;4.57;;;1.90;;
19883;SDS011;10104;50.732;10.174;2023-09-19T05:17:57;2.92;;;1.50;;
19883;SDS011;10104;50.732;10.174;2023-09-19T05:20:37;4.20;;;1.70;;
19883;SDS011;10104;50.732;10.174;2023-09-19T05:23:18;3.97;;;1.65;;
19883;SDS011;10104;50.732;10.174;2023-09-19T05:26:01;3.60;;;1.70;;
19883;SDS011;10104;50.732;10.174;2023-09-19T05:28:41;2.15;;;1.42;;
19883;SDS011;10104;50.732;10.174;2023-09-19T05:31:23;3.50;;;1.80;;
19883;SDS011;10104;50.732;10.174;2023-09-19T05:34:04;6.10;;;1.98;;
19883;SDS011;10104;50.732;10.174;2023-09-19T05:36:44;5.63;;;1.77;;
19883;SDS011;10104;50.732;10.174;2023-09-19T05:39:25;3.95;;;1.63;;
19883;SDS011;10104;50.732;10.174;2023-09-19T05:42:05;5.35;;;1.63;;
19883;SDS011;10104;50.732;10.174;2023-09-19T05:44:44;3.63;;;1.77;;
19883;SDS011;10104;50.732;10.174;2023-09-19T05:47:25;5.63;;;1.50;;
19883;SDS011;10104;50.732;10.174;2023-09-19T05:50:05;6.07;;;1.55;;
19883;SDS011;10104;50.732;10.174;2023-09-19T05:52:54;4.82;;;1.83;;
19883;SDS011;10104;50.732;10.174;2023-09-19T05:55:36;2.92;;;1.48;;
19883;SDS011;10104;50.732;10.174;2023-09-19T05:58:16;4.15;;;1.67;;
19883;SDS011;10104;50.732;10.174;2023-09-19T06:00:58;3.38;;;1.52;;
19883;SDS011;10104;50.732;10.174;2023-09-19T06:03:38;4.57;;;1.60;;
19883;SDS011;10104;50.732;10.174;2023-09-19T06:06:19;3.35;;;1.25;;
19883;SDS011;10104;50.732;10.174;2023-09-19T06:08:59;3.20;;;1.75;;
19883;SDS011;10104;50.732;10.174;2023-09-19T06:11:43;5.10;;;1.98;;
19883;SDS011;10104;50.732;10.174;2023-09-19T06:14:23;4.25;;;1.67;;
19883;SDS011;10104;50.732;10.174;2023-09-19T06:17:04;3.03;;;1.60;;
19883;SDS011;10104;50.732;10.174;2023-09-19T06:19:44;3.63;;;1.55;;
19883;SDS011;10104;50.732;10.174;2023-09-19T06:22:27;3.65;;;1.77;;
19883;SDS011;10104;50.732;10.174;2023-09-19T06:25:08;2.92;;;1.48;;
19883;SDS011;10104;50.732;10.174;2023-09-19T06:27:52;3.55;;;1.50;;
19883;SDS011;10104;50.732;10.174;2023-09-19T06:30:33;4.68;;;1.60;;
19883;SDS011;10104;50.732;10.174;2023-09-19T06:33:14;4.47;;;1.75;;
19883;SDS011;10104;50.732;10.174;2023-09-19T06:35:58;5.28;;;1.50;;
19883;SDS011;10104;50.732;10.174;2023-09-19T06:38:40;4.75;;;1.77;;
19883;SDS011;10104;50.732;10.174;2023-09-19T06:41:21;5.38;;;1.70;;
19883;SDS011;10104;50.732;10.174;2023-09-19T06:44:05;4.50;;;2.15;;
19883;SDS011;10104;50.732;10.174;2023-09-19T06:46:46;4.55;;;1.67;;
19883;SDS011;10104;50.732;10.174;2023-09-19T06:49:31;3.38;;;1.40;;
19883;SDS011;10104;50.732;10.174;2023-09-19T06:52:11;2.50;;;1.50;;
19883;SDS011;10104;50.732;10.174;2023-09-19T06:54:52;2.47;;;1.50;;
19883;SDS011;10104;50.732;10.174;2023-09-19T06:57:32;3.88;;;1.50;;
19883;SDS011;10104;50.732;10.174;2023-09-19T07:00:13;4.10;;;1.67;;
19883;SDS011;10104;50.732;10.174;2023-09-19T07:03:05;3.90;;;1.35;;
19883;SDS011;10104;50.732;10.174;2023-09-19T07:05:51;3.85;;;1.75;;
19883;SDS011;10104;50.732;10.174;2023-09-19T07:08:32;4.38;;;1.65;;
19883;SDS011;10104;50.732;10.174;2023-09-19T07:11:12;5.63;;;1.40;;
19883;SDS011;10104;50.732;10.174;2023-09-19T07:13:52;2.17;;;1.38;;
19883;SDS011;10104;50.732;10.174;2023-09-19T07:16:32;2.28;;;1.40;;
19883;SDS011;10104;50.732;10.174;2023-09-19T07:19:13;5.90;;;1.63;;
19883;SDS011;10104;50.732;10.174;2023-09-19T07:21:54;6.28;;;1.40;;
19883;SDS011;10104;50.732;10.174;2023-09-19T07:24:35;4.57;;;1.70;;
19883;SDS011;10104;50.732;10.174;2023-09-19T07:27:16;8.05;;;1.80;;
19883;SDS011;10104;50.732;10.174;2023-09-19T07:29:56;3.10;;;1.35;;
19883;SDS011;10104;50.732;10.174;2023-09-19T07:32:37;2.10;;;1.30;;
19883;SDS011;10104;50.732;10.174;2023-09-19T07:35:18;5.82;;;1.85;;
19883;SDS011;10104;50.732;10.174;2023-09-19T07:38:02;5.28;;;1.60;;
19883;SDS011;10104;50.732;10.174;2023-09-19T07:40:42;6.75;;;1.58;;
19883;SDS011;10104;50.732;10.174;2023-09-19T07:43:24;7.93;;;1.60;;
19883;SDS011;10104;50.732;10.174;2023-09-19T07:46:05;5.32;;;1.67;;
19883;SDS011;10104;50.732;10.174;2023-09-19T07:48:49;3.95;;;1.65;;
19883;SDS011;10104;50.732;10.174;2023-09-19T07:51:29;3.80;;;1.73;;
19883;SDS011;10104;50.732;10.174;2023-09-19T07:54:09;4.10;;;1.55;;
19883;SDS011;10104;50.732;10.174;2023-09-19T07:56:50;5.22;;;1.75;;
19883;SDS011;10104;50.732;10.174;2023-09-19T07:59:30;3.53;;;1.35;;
19883;SDS011;10104;50.732;10.174;2023-09-19T08:02:10;8.07;;;1.77;;
19883;SDS011;10104;50.732;10.174;2023-09-19T08:04:56;3.03;;;1.50;;
19883;SDS011;10104;50.732;10.174;2023-09-19T08:07:39;2.97;;;1.55;;
19883;SDS011;10104;50.732;10.174;2023-09-19T08:10:20;5.22;;;1.70;;
19883;SDS011;10104;50.732;10.174;2023-09-19T08:13:01;5.28;;;2.05;;
19883;SDS011;10104;50.732;10.174;2023-09-19T08:15:43;5.85;;;1.70;;
19883;SDS011;10104;50.732;10.174;2023-09-19T08:18:24;4.70;;;1.60;;
19883;SDS011;10104;50.732;10.174;2023-09-19T08:21:06;3.35;;;1.70;;
19883;SDS011;10104;50.732;10.174;2023-09-19T08:23:51;5.90;;;1.90;;
19883;SDS011;10104;50.732;10.174;2023-09-19T08:26:31;3.65;;;1.65;;
19883;SDS011;10104;50.732;10.174;2023-09-19T08:29:12;6.88;;;1.80;;
19883;SDS011;10104;50.732;10.174;2023-09-19T08:31:59;4.90;;;1.67;;
19883;SDS011;10104;50.732;10.174;2023-09-19T08:34:39;3.00;;;1.52;;
19883;SDS011;10104;50.732;10.174;2023-09-19T08:37:20;4.07;;;1.77;;
19883;SDS011;10104;50.732;10.174;2023-09-19T08:40:00;2.75;;;1.20;;
19883;SDS011;10104;50.732;10.174;2023-09-19T08:42:47;6.15;;;1.55;;
19883;SDS011;10104;50.732;10.174;2023-09-19T08:45:30;4.15;;;1.67;;
19883;SDS011;10104;50.732;10.174;2023-09-19T08:48:27;3.08;;;1.73;;
19883;SDS011;10104;50.732;10.174;2023-09-19T08:51:15;5.13;;;1.70;;
19883;SDS011;10104;50.732;10.174;2023-09-19T08:56:50;3.95;;;1.40;;
19883;SDS011;10104;50.732;10.174;2023-09-19T08:59:31;3.28;;;1.58;;
19883;SDS011;10104;50.732;10.174;2023-09-19T09:02:16;6.68;;;1.85;;
19883;SDS011;10104;50.732;10.174;2023-09-19T09:04:59;5.70;;;1.75;;
19883;SDS011;10104;50.732;10.174;2023-09-19T09:07:40;4.82;;;1.63;;
19883;SDS011;10104;50.732;10.174;2023-09-19T09:10:20;6.78;;;2.00;;
19883;SDS011;10104;50.732;10.174;2023-09-19T09:13:04;2.40;;;1.48;;
19883;SDS011;10104;50.732;10.174;2023-09-19T09:15:46;4.50;;;1.70;;
19883;SDS011;10104;50.732;10.174;2023-09-19T09:18:28;2.38;;;1.55;;
19883;SDS011;10104;50.732;10.174;2023-09-19T09:21:12;3.78;;;1.70;;
19883;SDS011;10104;50.732;10.174;2023-09-19T09:23:55;3.67;;;1.67;;
19883;SDS011;10104;50.732;10.174;2023-09-19T09:29:30;4.35;;;1.77;;
19883;SDS011;10104;50.732;10.174;2023-09-19T09:32:26;7.00;;;1.83;;
19883;SDS011;10104;50.732;10.174;2023-09-19T09:35:14;5.97;;;2.00;;
19883;SDS011;10104;50.732;10.174;2023-09-19T09:38:00;4.10;;;1.90;;
19883;SDS011;10104;50.732;10.174;2023-09-19T09:40:50;5.68;;;1.92;;
19883;SDS011;10104;50.732;10.174;2023-09-19T09:43:46;3.72;;;1.67;;
19883;SDS011;10104;50.732;10.174;2023-09-19T09:46:28;5.35;;;2.00;;
19883;SDS011;10104;50.732;10.174;2023-09-19T09:49:10;4.03;;;1.90;;
19883;SDS011;10104;50.732;10.174;2023-09-19T09:55:00;5.53;;;2.53;;
19883;SDS011;10104;50.732;10.174;2023-09-19T09:57:50;4.68;;;2.05;;
19883;SDS011;10104;50.732;10.174;2023-09-19T10:00:57;4.57;;;2.10;;
19883;SDS011;10104;50.732;10.174;2023-09-19T10:03:38;4.68;;;2.22;;
19883;SDS011;10104;50.732;10.174;2023-09-19T10:06:20;4.35;;;2.17;;
19883;SDS011;10104;50.732;10.174;2023-09-19T10:09:04;5.72;;;2.28;;
19883;SDS011;10104;50.732;10.174;2023-09-19T10:12:10;4.60;;;2.50;;
19883;SDS011;10104;50.732;10.174;2023-09-19T10:14:52;4.78;;;2.22;;
19883;SDS011;10104;50.732;10.174;2023-09-19T10:17:34;3.95;;;2.30;;
19883;SDS011;10104;50.732;10.174;2023-09-19T10:20:16;4.32;;;2.22;;
19883;SDS011;10104;50.732;10.174;2023-09-19T10:23:16;6.20;;;2.55;;
19883;SDS011;10104;50.732;10.174;2023-09-19T10:26:02;5.50;;;2.28;;
19883;SDS011;10104;50.732;10.174;2023-09-19T10:28:46;5.25;;;2.00;;
19883;SDS011;10104;50.732;10.174;2023-09-19T10:31:30;5.72;;;2.20;;
19883;SDS011;10104;50.732;10.174;2023-09-19T10:34:15;5.25;;;2.55;;
19883;SDS011;10104;50.732;10.174;2023-09-19T10:36:56;4.20;;;2.30;;
19883;SDS011;10104;50.732;10.174;2023-09-19T10:39:38;5.65;;;2.10;;
19883;SDS011;10104;50.732;10.174;2023-09-19T10:42:20;5.97;;;2.53;;
19883;SDS011;10104;50.732;10.174;2023-09-19T10:45:01;5.32;;;2.35;;
19883;SDS011;10104;50.732;10.174;2023-09-19T10:47:47;5.75;;;2.60;;
19883;SDS011;10104;50.732;10.174;2023-09-19T10:50:29;5.35;;;2.10;;
19883;SDS011;10104;50.732;10.174;2023-09-19T10:53:14;11.50;;;2.70;;
19883;SDS011;10104;50.732;10.174;2023-09-19T10:55:57;2.92;;;2.10;;
19883;SDS011;10104;50.732;10.174;2023-09-19T10:58:39;5.63;;;2.42;;
19883;SDS011;10104;50.732;10.174;2023-09-19T11:01:22;3.60;;;2.28;;
19883;SDS011;10104;50.732;10.174;2023-09-19T11:04:37;6.15;;;2.30;;
19883;SDS011;10104;50.732;10.174;2023-09-19T11:07:19;4.88;;;2.70;;
19883;SDS011;10104;50.732;10.174;2023-09-19T11:09:59;5.80;;;2.30;;
19883;SDS011;10104;50.732;10.174;2023-09-19T11:27:15;4.55;;;2.40;;
19883;SDS011;10104;50.732;10.174;2023-09-19T11:33:21;4.95;;;2.67;;
19883;SDS011;10104;50.732;10.174;2023-09-19T11:36:18;5.85;;;2.60;;
19883;SDS011;10104;50.732;10.174;2023-09-19T11:39:25;5.53;;;2.40;;
19883;SDS011;10104;50.732;10.174;2023-09-19T11:48:20;5.70;;;2.63;;
19883;SDS011;10104;50.732;10.174;2023-09-19T11:51:12;3.80;;;2.45;;
19883;SDS011;10104;50.732;10.174;2023-09-19T11:54:15;4.63;;;2.17;;
19883;SDS011;10104;50.732;10.174;2023-09-19T11:56:59;5.80;;;2.65;;
19883;SDS011;10104;50.732;10.174;2023-09-19T11:59:39;8.40;;;2.67;;
19883;SDS011;10104;50.732;10.174;2023-09-19T12:02:27;6.45;;;2.53;;
19883;SDS011;10104;50.732;10.174;2023-09-19T12:05:27;6.78;;;2.63;;
19883;SDS011;10104;50.732;10.174;2023-09-19T12:08:09;6.70;;;2.85;;
19883;SDS011;10104;50.732;10.174;2023-09-19T12:10:50;3.78;;;2.47;;
19883;SDS011;10104;50.732;10.174;2023-09-19T12:13:31;4.65;;;2.35;;
19883;SDS011;10104;50.732;10.174;2023-09-19T12:16:17;6.20;;;2.58;;
19883;SDS011;10104;50.732;10.174;2023-09-19T12:19:17;6.82;;;2.53;;
19883;SDS011;10104;50.732;10.174;2023-09-19T12:22:02;6.55;;;2.55;;
19883;SDS011;10104;50.732;10.174;2023-09-19T12:24:49;4.63;;;2.65;;
19883;SDS011;10104;50.732;10.174;2023-09-19T12:27:30;6.63;;;2.42;;
19883;SDS011;10104;50.732;10.174;2023-09-19T12:30:33;5.75;;;2.42;;
19883;SDS011;10104;50.732;10.174;2023-09-19T12:33:16;6.40;;;2.63;;
19883;SDS011;10104;50.732;10.174;2023-09-19T12:36:01;6.78;;;2.42;;
19883;SDS011;10104;50.732;10.174;2023-09-19T12:39:01;4.90;;;2.55;;
19883;SDS011;10104;50.732;10.174;2023-09-19T12:41:48;6.35;;;2.65;;
19883;SDS011;10104;50.732;10.174;2023-09-19T12:44:30;6.97;;;2.72;;
19883;SDS011;10104;50.732;10.174;2023-09-19T12:47:15;3.63;;;2.33;;
19883;SDS011;10104;50.732;10.174;2023-09-19T12:52:54;4.30;;;2.58;;
19883;SDS011;10104;50.732;10.174;2023-09-19T12:55:37;5.07;;;2.67;;
19883;SDS011;10104;50.732;10.174;2023-09-19T12:58:17;7.40;;;2.58;;
19883;SDS011;10104;50.732;10.174;2023-09-19T13:00:59;5.60;;;2.78;;
19883;SDS011;10104;50.732;10.174;2023-09-19T13:03:39;6.07;;;2.38;;
19883;SDS011;10104;50.732;10.174;2023-09-19T13:06:35;4.18;;;2.22;;
19883;SDS011;10104;50.732;10.174;2023-09-19T13:09:19;7.57;;;2.53;;
19883;SDS011;10104;50.732;10.174;2023-09-19T13:12:01;7.20;;;2.88;;
19883;SDS011;10104;50.732;10.174;2023-09-19T13:14:46;7.15;;;2.40;;
19883;SDS011;10104;50.732;10.174;2023-09-19T13:17:42;5.88;;;2.30;;
19883;SDS011;10104;50.732;10.174;2023-09-19T13:20:24;5.55;;;3.05;;
19883;SDS011;10104;50.732;10.174;2023-09-19T13:23:07;11.90;;;2.92;;
19883;SDS011;10104;50.732;10.174;2023-09-19T13:26:06;7.20;;;3.15;;
19883;SDS011;10104;50.732;10.174;2023-09-19T13:28:47;4.20;;;2.60;;
19883;SDS011;10104;50.732;10.174;2023-09-19T13:31:29;8.27;;;2.95;;
19883;SDS011;10104;50.732;10.174;2023-09-19T13:34:09;6.78;;;2.67;;
19883;SDS011;10104;50.732;10.174;2023-09-19T13:36:50;9.50;;;2.95;;
19883;SDS011;10104;50.732;10.174;2023-09-19T13:39:30;6.85;;;3.08;;
19883;SDS011;10104;50.732;10.174;2023-09-19T13:42:10;7.13;;;3.03;;
19883;SDS011;10104;50.732;10.174;2023-09-19T13:44:51;5.10;;;2.55;;
19883;SDS011;10104;50.732;10.174;2023-09-19T13:47:33;6.43;;;3.10;;
19883;SDS011;10104;50.732;10.174;2023-09-19T13:50:14;5.22;;;2.75;;
19883;SDS011;10104;50.732;10.174;2023-09-19T13:52:55;10.38;;;2.78;;
19883;SDS011;10104;50.732;10.174;2023-09-19T13:55:35;4.88;;;2.60;;
19883;SDS011;10104;50.732;10.174;2023-09-19T13:58:17;6.57;;;2.88;;
19883;SDS011;10104;50.732;10.174;2023-09-19T14:00:57;9.15;;;2.80;;
19883;SDS011;10104;50.732;10.174;2023-09-19T14:03:41;5.63;;;2.70;;
19883;SDS011;10104;50.732;10.174;2023-09-19T14:06:26;7.70;;;3.00;;
19883;SDS011;10104;50.732;10.174;2023-09-19T14:09:06;8.70;;;3.20;;
19883;SDS011;10104;50.732;10.174;2023-09-19T14:11:47;10.15;;;3.00;;
19883;SDS011;10104;50.732;10.174;2023-09-19T14:14:27;5.03;;;2.72;;
19883;SDS011;10104;50.732;10.174;2023-09-19T14:17:07;8.43;;;2.58;;
19883;SDS011;10104;50.732;10.174;2023-09-19T14:19:49;7.03;;;2.85;;
19883;SDS011;10104;50.732;10.174;2023-09-19T14:22:31;7.88;;;2.80;;
19883;SDS011;10104;50.732;10.174;2023-09-19T14:25:12;5.32;;;2.45;;
19883;SDS011;10104;50.732;10.174;2023-09-19T14:27:52;7.13;;;2.95;;
19883;SDS011;10104;50.732;10.174;2023-09-19T14:30:32;8.55;;;2.80;;
19883;SDS011;10104;50.732;10.174;2023-09-19T14:33:12;6.07;;;2.85;;
19883;SDS011;10104;50.732;10.174;2023-09-19T14:35:55;6.45;;;2.78;;
19883;SDS011;10104;50.732;10.174;2023-09-19T14:38:36;5.90;;;2.72;;
19883;SDS011;10104;50.732;10.174;2023-09-19T14:41:18;9.27;;;2.88;;
19883;SDS011;10104;50.732;10.174;2023-09-19T14:43:58;11.05;;;3.30;;
19883;SDS011;10104;50.732;10.174;2023-09-19T14:46:38;6.63;;;2.72;;
19883;SDS011;10104;50.732;10.174;2023-09-19T14:49:19;6.13;;;2.50;;
19883;SDS011;10104;50.732;10.174;2023-09-19T14:51:59;10.13;;;3.17;;
19883;SDS011;10104;50.732;10.174;2023-09-19T14:54:39;8.13;;;2.60;;
19883;SDS011;10104;50.732;10.174;2023-09-19T14:57:21;11.52;;;2.90;;
19883;SDS011;10104;50.732;10.174;2023-09-19T15:00:04;7.60;;;2.50;;
19883;SDS011;10104;50.732;10.174;2023-09-19T15:02:45;5.85;;;2.47;;
19883;SDS011;10104;50.732;10.174;2023-09-19T15:05:28;5.72;;;2.50;;
19883;SDS011;10104;50.732;10.174;2023-09-19T15:08:10;6.43;;;2.58;;
19883;SDS011;10104;50.732;10.174;2023-09-19T15:10:50;8.57;;;2.90;;
19883;SDS011;10104;50.732;10.174;2023-09-19T15:13:33;9.65;;;2.80;;
19883;SDS011;10104;50.732;10.174;2023-09-19T15:16:14;6.95;;;2.75;;
19883;SDS011;10104;50.732;10.174;2023-09-19T15:18:55;5.68;;;2.63;;
19883;SDS011;10104;50.732;10.174;2023-09-19T15:21:35;8.48;;;2.72;;
19883;SDS011;10104;50.732;10.174;2023-09-19T15:24:17;8.10;;;3.05;;
19883;SDS011;10104;50.732;10.174;2023-09-19T15:26:57;7.43;;;2.70;;
19883;SDS011;10104;50.732;10.174;2023-09-19T15:29:38;5.90;;;2.42;;
19883;SDS011;10104;50.732;10.174;2023-09-19T15:32:18;5.32;;;2.10;;
19883;SDS011;10104;50.732;10.174;2023-09-19T15:34:59;7.95;;;2.40;;
19883;SDS011;10104;50.732;10.174;2023-09-19T15:37:39;11.32;;;3.08;;
19883;SDS011;10104;50.732;10.174;2023-09-19T15:40:19;7.13;;;2.53;;
19883;SDS011;10104;50.732;10.174;2023-09-19T15:42:59;7.03;;;2.47;;
19883;SDS011;10104;50.732;10.174;2023-09-19T15:45:43;6.90;;;2.40;;
19883;SDS011;10104;50.732;10.174;2023-09-19T15:48:23;5.68;;;2.50;;
19883;SDS011;10104;50.732;10.174;2023-09-19T15:51:04;5.50;;;2.22;;
19883;SDS011;10104;50.732;10.174;2023-09-19T15:53:45;6.78;;;2.10;;
19883;SDS011;10104;50.732;10.174;2023-09-19T15:56:27;9.23;;;2.40;;
19883;SDS011;10104;50.732;10.174;2023-09-19T15:59:07;8.57;;;2.95;;
19883;SDS011;10104;50.732;10.174;2023-09-19T16:01:49;5.50;;;2.13;;
19883;SDS011;10104;50.732;10.174;2023-09-19T16:04:30;5.57;;;2.30;;
19883;SDS011;10104;50.732;10.174;2023-09-19T16:07:13;9.40;;;2.47;;
19883;SDS011;10104;50.732;10.174;2023-09-19T16:09:55;5.45;;;2.10;;
19883;SDS011;10104;50.732;10.174;2023-09-19T16:12:35;9.95;;;2.35;;
19883;SDS011;10104;50.732;10.174;2023-09-19T16:15:17;5.20;;;2.10;;
19883;SDS011;10104;50.732;10.174;2023-09-19T16:17:58;7.40;;;2.15;;
19883;SDS011;10104;50.732;10.174;2023-09-19T16:20:40;8.98;;;2.58;;
19883;SDS011;10104;50.732;10.174;2023-09-19T16:23:20;6.82;;;2.47;;
19883;SDS011;10104;50.732;10.174;2023-09-19T16:26:01;7.40;;;2.17;;
19883;SDS011;10104;50.732;10.174;2023-09-19T16:28:45;5.43;;;2.50;;
19883;SDS011;10104;50.732;10.174;2023-09-19T16:31:27;5.90;;;2.25;;
19883;SDS011;10104;50.732;10.174;2023-09-19T16:34:07;5.22;;;2.35;;
19883;SDS011;10104;50.732;10.174;2023-09-19T16:36:49;4.55;;;2.05;;
19883;SDS011;10104;50.732;10.174;2023-09-19T16:39:29;4.22;;;1.73;;
19883;SDS011;10104;50.732;10.174;2023-09-19T16:42:09;6.40;;;1.98;;
19883;SDS011;10104;50.732;10.174;2023-09-19T16:44:59;6.63;;;2.00;;
19883;SDS011;10104;50.732;10.174;2023-09-19T16:47:39;7.63;;;2.00;;
19883;SDS011;10104;50.732;10.174;2023-09-19T16:50:20;7.65;;;2.08;;